PDT,Max TemperatureF,Mean TemperatureF,Min TemperatureF,Max Dew PointF,MeanDew PointF,Min DewpointF,Max Humidity, Mean Humidity, Min Humidity, Max Sea Level PressureIn, Mean Sea Level PressureIn, Min Sea Level PressureIn, Max VisibilityMiles, Mean VisibilityMiles, Min VisibilityMiles, Max Wind SpeedMPH, Mean Wind SpeedMPH, Max Gust SpeedMPH,PrecipitationIn, CloudCover, Events, WindDirDegrees
2012-5-1,76,62,48,49,44,35,93,58,23,29.94,29.90,29.84,10,10,10,17,8,23,0.00,2,,280
2012-5-2,78,59,40,47,40,26,89,53,16,29.98,29.93,29.88,10,10,10,18,7,29,0.00,1,,270
2012-5-3,72,58,44,49,45,41,92,64,36,30.08,30.03,29.97,10,10,10,20,8,24,0.00,2,,250
2012-5-4,77,62,46,49,45,36,93,59,25,30.15,30.10,30.05,10,10,10,30,8,61,0.00,4,,313
2012-5-5,82,61,39,41,36,23,92,53,14,30.15,30.08,29.99,10,10,10,16,6,,0.00,0,,350
2012-5-6,88,63,38,39,36,31,85,49,13,30.05,29.99,29.92,10,10,10,14,4,,0.00,0,,346
2012-5-7,92,67,42,42,36,21,82,45,8,30.02,29.96,29.87,10,10,10,20,6,24,0.00,0,,321
2012-5-8,94,68,42,42,36,23,82,45,8,29.98,29.92,29.85,10,10,10,13,4,,0.00,0,,255
2012-5-9,96,72,47,44,37,26,76,43,9,29.98,29.90,29.82,10,10,4,21,6,24,0.00,0,,270
2012-5-10,89,67,44,46,42,24,92,52,11,29.91,29.86,29.79,10,10,8,22,6,28,0.00,0,,213
2012-5-11,89,66,42,46,40,28,80,46,12,29.97,29.91,29.86,10,10,10,17,5,,0.00,0,,202
2012-5-12,94,70,45,50,43,34,89,51,13,30.06,30.00,29.93,10,10,10,21,5,24,0.00,0,,195
2012-5-13,74,60,46,49,47,45,100,71,41,30.10,30.05,30.00,10,10,9,24,10,31,0.00,1,,196
2012-5-14,75,58,40,46,44,40,96,66,35,30.12,30.05,29.98,10,10,10,22,7,25,0.00,0,,217
2012-5-15,87,65,42,47,44,37,89,54,18,30.06,29.98,29.89,10,10,10,20,8,24,0.00,0,,319
2012-5-16,95,70,45,48,44,36,93,54,14,30.02,29.95,29.84,10,9,4,22,7,26,0.00,1,,309
2012-5-17,86,67,47,47,41,16,100,54,8,29.94,29.89,29.79,10,7,0,28,10,32,0.00,2,Fog,314
2012-5-18,84,66,47,45,42,34,93,55,17,29.97,29.91,29.85,10,10,9,20,9,24,0.00,1,,318
2012-5-19,91,68,44,43,39,29,89,52,14,29.99,29.92,29.83,10,10,10,21,6,25,0.00,0,,303
2012-5-20,98,73,48,45,40,32,71,41,11,29.98,29.92,29.83,10,10,10,21,5,26,0.00,0,,296
2012-5-21,91,71,50,49,44,34,89,52,15,30.04,29.98,29.93,10,10,10,24,13,30,0.00,0,,315
2012-5-22,90,70,50,52,46,39,83,51,18,30.06,30.01,29.94,10,10,10,25,12,36,0.00,0,,325
2012-5-23,84,68,51,46,41,32,83,50,16,29.98,29.90,29.81,10,10,10,33,18,43,0.00,0,,324
2012-5-24,85,65,44,44,40,32,86,52,17,29.85,29.77,29.65,10,10,10,29,13,32,0.00,0,,328
2012-5-25,66,54,42,41,38,33,89,60,31,29.86,29.78,29.73,10,10,10,21,8,30,T,2,,304
2012-5-26,66,53,40,46,42,37,89,69,48,30.09,29.97,29.87,10,10,10,22,9,26,0.00,1,,220
2012-5-27,82,63,44,45,42,37,92,56,20,30.13,30.06,29.97,10,10,9,54,7,,0.00,1,,330
2012-5-28,85,64,43,45,43,38,86,53,19,30.06,29.99,29.90,10,10,10,20,8,59,0.00,0,,307
2012-5-29,83,66,48,47,44,42,80,52,24,30.04,29.99,29.94,10,10,10,21,9,24,0.00,0,,284
2012-5-30,92,69,46,47,44,41,93,56,18,30.09,30.02,29.93,10,10,10,18,7,,0.00,0,,312
2012-5-31,101,75,48,47,43,36,80,46,11,30.02,29.91,29.78,10,10,8,20,5,23,0.00,0,,302